Map

Track Data

SID SEASON NUMBER BASIN SUBBASIN NAME ISO_TIME NATURE LAT LON WMO_WIND WMO_PRES WMO_AGENCY TRACK_TYPE DIST2LAND LANDFALL IFLAG USA_AGENCY USA_ATCF_ID USA_LAT USA_LON USA_RECORD USA_STATUS USA_WIND USA_PRES USA_SSHS USA_R34_NE USA_R34_SE USA_R34_SW USA_R34_NW USA_R50_NE USA_R50_SE USA_R50_SW USA_R50_NW USA_R64_NE USA_R64_SE USA_R64_SW USA_R64_NW USA_POCI USA_ROCI USA_RMW USA_EYE TOKYO_LAT TOKYO_LON TOKYO_GRADE TOKYO_WIND TOKYO_PRES TOKYO_R50_DIR TOKYO_R50_LONG TOKYO_R50_SHORT TOKYO_R30_DIR TOKYO_R30_LONG TOKYO_R30_SHORT TOKYO_LAND CMA_LAT CMA_LON CMA_CAT CMA_WIND CMA_PRES HKO_LAT HKO_LON HKO_CAT HKO_WIND HKO_PRES NEWDELHI_LAT NEWDELHI_LON NEWDELHI_GRADE NEWDELHI_WIND NEWDELHI_PRES NEWDELHI_CI NEWDELHI_DP NEWDELHI_POCI REUNION_LAT REUNION_LON REUNION_TYPE REUNION_WIND REUNION_PRES REUNION_TNUM REUNION_CI REUNION_RMW REUNION_R34_NE REUNION_R34_SE REUNION_R34_SW REUNION_R34_NW REUNION_R50_NE REUNION_R50_SE REUNION_R50_SW REUNION_R50_NW REUNION_R64_NE REUNION_R64_SE REUNION_R64_SW REUNION_R64_NW BOM_LAT BOM_LON BOM_TYPE BOM_WIND BOM_PRES BOM_TNUM BOM_CI BOM_RMW BOM_R34_NE BOM_R34_SE BOM_R34_SW BOM_R34_NW BOM_R50_NE BOM_R50_SE BOM_R50_SW BOM_R50_NW BOM_R64_NE BOM_R64_SE BOM_R64_SW BOM_R64_NW BOM_ROCI BOM_POCI BOM_EYE BOM_POS_METHOD BOM_PRES_METHOD NADI_LAT NADI_LON NADI_CAT NADI_WIND NADI_PRES WELLINGTON_LAT WELLINGTON_LON WELLINGTON_WIND WELLINGTON_PRES DS824_LAT DS824_LON DS824_STAGE DS824_WIND DS824_PRES TD9636_LAT TD9636_LON TD9636_STAGE TD9636_WIND TD9636_PRES TD9635_LAT TD9635_LON TD9635_WIND TD9635_PRES TD9635_ROCI NEUMANN_LAT NEUMANN_LON NEUMANN_CLASS NEUMANN_WIND NEUMANN_PRES MLC_LAT MLC_LON MLC_CLASS MLC_WIND MLC_PRES USA_GUST BOM_GUST BOM_GUST_PER REUNION_GUST REUNION_GUST_PER USA_SEAHGT USA_SEARAD_NE USA_SEARAD_SE USA_SEARAD_SW USA_SEARAD_NW STORM_SPEED STORM_DIR
1926200N15128 1926 25 WP MM NOT_NAMED 1926-07-19 10:00:00 NR 14.5000 128.200 main 389 373 __________O___ -1 14.5000 128.200 4 4 273
1926200N15128 1926 25 WP MM NOT_NAMED 1926-07-19 12:00:00 NR 14.5089 128.048 main 373 358 __________P___ -1 14.5089 128.048 4 5 276
1926200N15128 1926 25 WP MM NOT_NAMED 1926-07-19 15:00:00 NR 14.5375 127.808 main 358 342 __________P___ -1 14.5375 127.808 4 5 281
1926200N15128 1926 25 WP MM NOT_NAMED 1926-07-19 18:00:00 NR 14.6059 127.538 main 342 314 __________P___ -1 14.6059 127.538 4 6 289
1926200N15128 1926 25 WP MM NOT_NAMED 1926-07-19 21:00:00 NR 14.7378 127.220 main 314 307 __________P___ -1 14.7378 127.220 4 7 295
1926200N15128 1926 25 WP MM NOT_NAMED 1926-07-19 22:00:00 NR 14.8000 127.100 main 307 286 __________O___ -1 14.8000 127.100 4 9 301
1926200N15128 1926 25 WP MM NOT_NAMED 1926-07-20 00:00:00 NR 14.9551 126.838 main 286 259 __________P___ -1 14.9551 126.838 4 10 304
1926200N15128 1926 25 WP MM NOT_NAMED 1926-07-20 03:00:00 NR 15.2566 126.407 main 266 255 __________P___ -1 15.2566 126.407 4 11 308
1926200N15128 1926 25 WP MM NOT_NAMED 1926-07-20 06:00:00 NR 15.6267 125.960 main 255 248 __________P___ -1 15.6267 125.960 4 12 313
1926200N15128 1926 25 WP MM NOT_NAMED 1926-07-20 09:00:00 NR 16.0498 125.532 main 258 263 __________P___ -1 16.0498 125.532 4 12 317
1926200N15128 1926 25 WP MM NOT_NAMED 1926-07-20 10:00:00 NR 16.2000 125.400 main 273 273 __________O___ -1 16.2000 125.400 4 11 325
1926200N15128 1926 25 WP MM NOT_NAMED 1926-07-20 12:00:00 NR 16.5090 125.192 main 291 255 __________P___ -1 16.5090 125.192 4 11 330
1926200N15128 1926 25 WP MM NOT_NAMED 1926-07-20 15:00:00 NR 17.0109 124.912 main 255 229 __________P___ -1 17.0109 124.912 4 12 332
1926200N15128 1926 25 WP MM NOT_NAMED 1926-07-20 18:00:00 NR 17.5313 124.635 main 229 214 __________P___ -1 17.5313 124.635 4 12 331
1926200N15128 1926 25 WP MM NOT_NAMED 1926-07-20 21:00:00 NR 18.0390 124.320 main 214 200 __________P___ -1 18.0390 124.320 4 12 328
1926200N15128 1926 25 WP MM NOT_NAMED 1926-07-20 22:00:00 NR 18.2000 124.200 main 200 169 __________O___ -1 18.2000 124.200 4 12 321
1926200N15128 1926 25 WP MM NOT_NAMED 1926-07-21 00:00:00 NR 18.5078 123.920 main 169 138 __________P___ -1 18.5078 123.920 4 12 316
1926200N15128 1926 25 WP MM NOT_NAMED 1926-07-21 03:00:00 NR 18.9447 123.451 main 138 118 __________P___ -1 18.9447 123.451 4 13 312
1926200N15128 1926 25 WP MM NOT_NAMED 1926-07-21 06:00:00 NR 19.3435 122.934 main 118 123 __________P___ -1 19.3435 122.934 4 13 307
1926200N15128 1926 25 WP MM NOT_NAMED 1926-07-21 09:00:00 NR 19.6949 122.387 main 145 145 __________P___ -1 19.6949 122.387 4 12 303
1926200N15128 1926 25 WP MM NOT_NAMED 1926-07-21 10:00:00 NR 19.8000 122.200 main 156 156 __________O___ -1 19.8000 122.200 4 12 301
1926200N15128 1926 25 WP MM NOT_NAMED 1926-07-21 12:00:00 NR 20.0028 121.839 main 172 172 __________P___ -1 20.0028 121.839 4 12 298
1926200N15128 1926 25 WP MM NOT_NAMED 1926-07-21 15:00:00 NR 20.2632 121.278 main 183 156 __________P___ -1 20.2632 121.278 4 12 294
1926200N15128 1926 25 WP MM NOT_NAMED 1926-07-21 18:00:00 NR 20.4769 120.698 main 156 147 __________P___ -1 20.4769 120.698 4 12 289
1926200N15128 1926 25 WP MM NOT_NAMED 1926-07-21 21:00:00 NR 20.6501 120.102 main 147 147 __________P___ -1 20.6501 120.102 4 12 287
1926200N15128 1926 25 WP MM NOT_NAMED 1926-07-21 22:00:00 NR 20.7000 119.900 main 157 157 __________O___ -1 20.7000 119.900 4 12 285
1926200N15128 1926 25 WP MM NOT_NAMED 1926-07-22 00:00:00 NR 20.7975 119.494 main 174 174 __________P___ -1 20.7975 119.494 4 12 282
1926200N15128 1926 25 WP MM NOT_NAMED 1926-07-22 03:00:00 NR 20.9125 118.873 main 217 226 __________P___ -1 20.9125 118.873 4 12 280
1926200N15128 1926 25 WP MM NOT_NAMED 1926-07-22 06:00:00 NR 21.0012 118.243 main 274 230 __________P___ -1 21.0012 118.243 4 12 278
1926200N15128 1926 25 WP MM NOT_NAMED 1926-07-22 09:00:00 NR 21.0760 117.611 main 230 221 __________P___ -1 21.0760 117.611 4 12 277
1926200N15128 1926 25 WP MM NOT_NAMED 1926-07-22 10:00:00 NR 21.1000 117.400 main 221 196 __________O___ -1 21.1000 117.400 4 12 278
1926200N15128 1926 25 WP MM NOT_NAMED 1926-07-22 12:00:00 NR 21.1552 116.983 main 196 178 __________P___ -1 21.1552 116.983 4 12 278
1926200N15128 1926 25 WP MM NOT_NAMED 1926-07-22 15:00:00 NR 21.2321 116.358 main 178 156 __________P___ -1 21.2321 116.358 4 12 277
1926200N15128 1926 25 WP MM NOT_NAMED 1926-07-22 18:00:00 NR 21.3046 115.733 main 156 124 __________P___ -1 21.3046 115.733 4 12 277
1926200N15128 1926 25 WP MM NOT_NAMED 1926-07-22 21:00:00 NR 21.3759 115.108 main 124 118 __________P___ -1 21.3759 115.108 4 12 277
1926200N15128 1926 25 WP MM NOT_NAMED 1926-07-22 22:00:00 NR 21.4000 114.900 main 118 102 __________O___ -1 21.4000 114.900 4 12 276
1926200N15128 1926 25 WP MM NOT_NAMED 1926-07-23 00:00:00 NR 21.4390 114.483 main 102 88 __________P___ -1 21.4390 114.483 4 12 276
1926200N15128 1926 25 WP MM NOT_NAMED 1926-07-23 03:00:00 NR 21.4976 113.857 main 88 39 __________P___ -1 21.4976 113.857 4 12 276
1926200N15128 1926 25 WP MM NOT_NAMED 1926-07-23 06:00:00 NR 21.5676 113.232 main 39 11 __________P___ -1 21.5676 113.232 4 12 278
1926200N15128 1926 25 WP MM NOT_NAMED 1926-07-23 09:00:00 NR 21.6613 112.608 main 11 10 __________P___ -1 21.6613 112.608 4 12 280
1926200N15128 1926 25 WP MM NOT_NAMED 1926-07-23 10:00:00 NR 21.7000 112.400 main 10 0 __________O___ -1 21.7000 112.400 4 12 283
1926200N15128 1926 25 WP MM NOT_NAMED 1926-07-23 12:00:00 NR 21.7902 111.984 main 0 0 __________P___ -1 21.7902 111.984 4 12 285
1926200N15128 1926 25 WP MM NOT_NAMED 1926-07-23 15:00:00 NR 21.9523 111.360 main 0 0 __________P___ -1 21.9523 111.360 4 12 287
1926200N15128 1926 25 WP MM NOT_NAMED 1926-07-23 18:00:00 NR 22.1370 110.735 main 0 0 __________P___ -1 22.1370 110.735 4 12 288
1926200N15128 1926 25 WP MM NOT_NAMED 1926-07-23 21:00:00 NR 22.3337 110.109 main 0 0 __________P___ -1 22.3337 110.109 4 12 289
1926200N15128 1926 25 WP MM NOT_NAMED 1926-07-23 22:00:00 NR 22.4000 109.900 main 0 __________O___ -1 22.4000 109.900 4 12 289

Digital Typhoon Data and Search

About IBTrACS Database

This database is a web-friendly format of International Best Track Archive for Climate Stewardship (IBTrACS), a global best track data archive curated by NOAA dating back to 1842.

Updated: 2021-12-03